Time;durP1;ratioP1;P1;durP2;ratioP2;P2;SDS_P1;SDS_P2;PMS_P1;PMS_P2;Temp;Humidity;BMP_temperature;BMP_pressure;BME280_temperature;BME280_humidity;BME280_pressure;Samples;Min_cycle;Max_cycle;Signal;HPM_P1;HPM_P2
2021/01/20 00:02:18;;;;;;;7.05;6.45;;;;;;;;;;5113603;28;20203;-59
2021/01/20 00:04:45;;;;;;;7.20;6.50;;;;;;;;;;5113680;28;20204;-59
2021/01/20 00:07:12;;;;;;;7.85;7.03;;;;;;;;;;5114567;28;20706;-59
2021/01/20 00:09:40;;;;;;;7.07;6.40;;;;;;;;;;5113339;28;20693;-58
2021/01/20 00:12:07;;;;;;;7.35;6.57;;;;;;;;;;5113687;28;20231;-60
2021/01/20 00:14:34;;;;;;;7.25;6.30;;;;;;;;;;5113628;28;20211;-60
2021/01/20 00:17:01;;;;;;;6.78;6.10;;;;;;;;;;5113319;28;20219;-60
2021/01/20 00:19:28;;;;;;;6.20;5.63;;;;;;;;;;5113252;28;20283;-60
2021/01/20 00:21:55;;;;;;;7.35;6.65;;;;;;;;;;5113569;28;20199;-59
2021/01/20 00:24:22;;;;;;;6.43;5.82;;;;;;;;;;5117242;28;20204;-58
2021/01/20 00:26:49;;;;;;;6.57;5.97;;;;;;;;;;5117329;28;20226;-60
2021/01/20 00:29:15;;;;;;;6.45;5.85;;;;;;;;;;5117690;28;20227;-59
2021/01/20 00:31:42;;;;;;;6.95;6.25;;;;;;;;;;5117726;28;20200;-60
2021/01/20 00:34:09;;;;;;;9.98;6.75;;;;;;;;;;5117349;28;20203;-60
2021/01/20 00:36:36;;;;;;;6.28;5.68;;;;;;;;;;5117651;28;20215;-59
2021/01/20 00:39:03;;;;;;;6.78;6.18;;;;;;;;;;5117215;28;20200;-59
2021/01/20 00:41:30;;;;;;;7.60;6.80;;;;;;;;;;5117374;28;20200;-59
2021/01/20 00:43:58;;;;;;;6.72;6.13;;;;;;;;;;5117600;28;20252;-60
2021/01/20 00:46:25;;;;;;;7.47;6.78;;;;;;;;;;5117294;28;20593;-59
2021/01/20 00:48:51;;;;;;;7.25;6.53;;;;;;;;;;5117229;28;20223;-59
2021/01/20 00:51:18;;;;;;;7.72;6.93;;;;;;;;;;5117258;28;20251;-59
2021/01/20 00:53:46;;;;;;;7.68;6.97;;;;;;;;;;5117248;28;20195;-59
2021/01/20 00:56:12;;;;;;;10.23;6.25;;;;;;;;;;5117133;28;20219;-60
2021/01/20 00:58:39;;;;;;;9.15;6.45;;;;;;;;;;5117094;28;20199;-60
2021/01/20 01:01:06;;;;;;;8.68;7.05;;;;;;;;;;5117473;28;20268;-59
2021/01/20 01:03:33;;;;;;;7.45;6.70;;;;;;;;;;5117014;28;20211;-59
2021/01/20 01:06:00;;;;;;;7.72;6.95;;;;;;;;;;5116730;28;20596;-59
2021/01/20 01:08:27;;;;;;;6.82;6.22;;;;;;;;;;5116678;28;20220;-59
2021/01/20 01:10:54;;;;;;;6.53;5.82;;;;;;;;;;5116952;28;20203;-59
2021/01/20 01:13:21;;;;;;;7.18;6.18;;;;;;;;;;5116924;28;20199;-58
2021/01/20 01:15:48;;;;;;;6.78;6.07;;;;;;;;;;5116423;28;20230;-59
2021/01/20 01:18:15;;;;;;;7.15;6.45;;;;;;;;;;5116434;28;20728;-59
2021/01/20 01:20:41;;;;;;;7.35;6.65;;;;;;;;;;5116370;28;20200;-59
2021/01/20 01:23:08;;;;;;;7.00;5.95;;;;;;;;;;5116735;28;20264;-59
2021/01/20 01:25:35;;;;;;;7.10;6.40;;;;;;;;;;5116639;28;20203;-59
2021/01/20 01:28:10;;;;;;;7.15;6.05;;;;;;;;;;5116770;28;20211;-59
2021/01/20 01:30:37;;;;;;;6.78;6.18;;;;;;;;;;5117003;28;20184;-59
2021/01/20 01:33:04;;;;;;;8.90;6.25;;;;;;;;;;5118810;28;20199;-59
2021/01/20 01:35:31;;;;;;;8.02;5.93;;;;;;;;;;5118063;28;20207;-59
2021/01/20 01:37:58;;;;;;;8.65;5.75;;;;;;;;;;5117327;28;20559;-59
2021/01/20 01:40:25;;;;;;;7.20;5.57;;;;;;;;;;5117380;28;20199;-59
2021/01/20 01:42:51;;;;;;;6.03;5.43;;;;;;;;;;5116984;28;20207;-59
2021/01/20 01:45:19;;;;;;;6.32;5.70;;;;;;;;;;5115958;28;20228;-59
2021/01/20 01:47:46;;;;;;;6.10;5.47;;;;;;;;;;5116098;28;20231;-60
2021/01/20 01:50:13;;;;;;;6.13;5.63;;;;;;;;;;5115930;28;20233;-60
2021/01/20 01:52:40;;;;;;;5.68;5.05;;;;;;;;;;5116193;28;20215;-59
2021/01/20 01:55:08;;;;;;;6.65;4.53;;;;;;;;;;5116098;28;20199;-59
2021/01/20 01:57:37;;;;;;;5.68;4.97;;;;;;;;;;5115605;28;20223;-59
2021/01/20 02:00:04;;;;;;;6.40;4.40;;;;;;;;;;5115951;28;20215;-59
2021/01/20 02:02:33;;;;;;;6.38;5.22;;;;;;;;;;5115887;28;20201;-59
2021/01/20 02:05:00;;;;;;;6.35;4.95;;;;;;;;;;5115847;28;20203;-58
2021/01/20 02:07:27;;;;;;;7.05;5.10;;;;;;;;;;5115343;28;20239;-57
2021/01/20 02:09:54;;;;;;;6.13;5.28;;;;;;;;;;5115900;28;20204;-59
2021/01/20 02:12:36;;;;;;;7.80;5.03;;;;;;;;;;5116746;28;20207;-59
2021/01/20 02:15:05;;;;;;;7.18;5.40;;;;;;;;;;5115998;28;20206;-59
2021/01/20 02:17:37;;;;;;;5.35;4.85;;;;;;;;;;5115603;28;20245;-59
2021/01/20 02:20:12;;;;;;;4.95;4.45;;;;;;;;;;5115632;28;20216;-60
2021/01/20 02:22:40;;;;;;;7.35;5.15;;;;;;;;;;5115548;28;20191;-59
2021/01/20 02:25:13;;;;;;;5.53;5.03;;;;;;;;;;5115214;28;20195;-59
2021/01/20 02:27:45;;;;;;;8.18;5.07;;;;;;;;;;5115337;28;20220;-60
2021/01/20 02:30:13;;;;;;;4.88;4.35;;;;;;;;;;5115195;28;20639;-59
2021/01/20 02:32:41;;;;;;;4.93;4.43;;;;;;;;;;5115279;28;20196;-59
2021/01/20 02:35:09;;;;;;;5.15;4.13;;;;;;;;;;5115297;28;20572;-59
2021/01/20 02:37:36;;;;;;;4.95;3.75;;;;;;;;;;5114783;28;20231;-59
2021/01/20 02:40:04;;;;;;;4.70;4.30;;;;;;;;;;5115498;28;20204;-60
2021/01/20 02:42:31;;;;;;;5.85;4.57;;;;;;;;;;5115485;28;20276;-59
2021/01/20 02:44:58;;;;;;;4.65;3.75;;;;;;;;;;5115672;28;20572;-59
2021/01/20 02:47:26;;;;;;;4.00;3.38;;;;;;;;;;5115200;28;20235;-59
2021/01/20 02:49:54;;;;;;;4.00;3.60;;;;;;;;;;5115606;28;20206;-59
2021/01/20 02:52:24;;;;;;;4.82;3.47;;;;;;;;;;5115850;28;20569;-59
2021/01/20 02:54:51;;;;;;;5.80;3.42;;;;;;;;;;5114980;28;20204;-60
2021/01/20 02:57:18;;;;;;;4.75;3.80;;;;;;;;;;5114568;28;20711;-59
2021/01/20 02:59:46;;;;;;;4.50;3.90;;;;;;;;;;5114534;28;20196;-59
2021/01/20 03:02:14;;;;;;;5.45;3.25;;;;;;;;;;5114534;28;20211;-59
2021/01/20 03:04:43;;;;;;;5.05;3.83;;;;;;;;;;5114736;28;20202;-59
2021/01/20 03:07:10;;;;;;;4.28;2.95;;;;;;;;;;5114257;28;20227;-59
2021/01/20 03:09:38;;;;;;;9.02;3.70;;;;;;;;;;5114680;28;20242;-59
2021/01/20 03:12:05;;;;;;;4.40;3.22;;;;;;;;;;5114280;28;20203;-58
2021/01/20 03:14:33;;;;;;;3.90;3.60;;;;;;;;;;5114558;28;20226;-59
2021/01/20 03:17:00;;;;;;;5.38;3.15;;;;;;;;;;5114502;28;20216;-59
2021/01/20 03:19:26;;;;;;;4.40;3.60;;;;;;;;;;5114167;28;20199;-59
2021/01/20 03:21:54;;;;;;;4.15;3.40;;;;;;;;;;5114407;28;20206;-59
2021/01/20 03:24:21;;;;;;;5.78;3.30;;;;;;;;;;5114332;28;20270;-60
2021/01/20 03:26:48;;;;;;;6.68;3.72;;;;;;;;;;5113856;28;20226;-59
2021/01/20 03:29:14;;;;;;;4.15;3.25;;;;;;;;;;5114952;28;20577;-59
2021/01/20 03:31:41;;;;;;;4.18;3.10;;;;;;;;;;5114093;28;20575;-58
2021/01/20 03:34:08;;;;;;;3.75;3.35;;;;;;;;;;5114088;28;20207;-59
2021/01/20 03:36:35;;;;;;;4.47;3.33;;;;;;;;;;5114125;28;20226;-59
2021/01/20 03:39:02;;;;;;;5.20;3.47;;;;;;;;;;5114319;28;20202;-59
2021/01/20 03:41:29;;;;;;;4.78;2.60;;;;;;;;;;5113751;28;20211;-60
2021/01/20 03:43:56;;;;;;;4.07;3.13;;;;;;;;;;5114059;28;20200;-60
2021/01/20 03:46:22;;;;;;;4.38;3.40;;;;;;;;;;5114051;28;20219;-59
2021/01/20 03:48:49;;;;;;;6.45;3.13;;;;;;;;;;5113966;28;20639;-59
2021/01/20 03:51:16;;;;;;;7.97;3.30;;;;;;;;;;5113700;28;20200;-60
2021/01/20 03:53:43;;;;;;;4.78;3.10;;;;;;;;;;5113719;28;20568;-59
2021/01/20 03:56:10;;;;;;;6.40;3.60;;;;;;;;;;5113458;28;20231;-60
2021/01/20 03:58:37;;;;;;;3.58;3.10;;;;;;;;;;5113269;28;20688;-59
2021/01/20 04:01:04;;;;;;;4.30;3.10;;;;;;;;;;5113598;28;20200;-59
2021/01/20 04:03:30;;;;;;;6.80;3.78;;;;;;;;;;5113566;28;20204;-59
2021/01/20 04:07:37;;;;;;;4.05;3.33;;;;;;;;;;5111938;27;20555;-61
2021/01/20 04:10:07;;;;;;;5.47;3.53;;;;;;;;;;5111023;28;20207;-60
2021/01/20 04:12:34;;;;;;;3.92;3.53;;;;;;;;;;5111463;28;20188;-60
2021/01/20 04:15:01;;;;;;;5.57;4.13;;;;;;;;;;5110988;28;20208;-61
2021/01/20 04:17:28;;;;;;;8.23;4.13;;;;;;;;;;5111339;28;20220;-60
2021/01/20 04:19:54;;;;;;;6.15;4.50;;;;;;;;;;5112476;28;20204;-60
2021/01/20 04:22:21;;;;;;;6.50;3.75;;;;;;;;;;5110593;28;20671;-60
2021/01/20 04:24:49;;;;;;;4.45;4.05;;;;;;;;;;5110868;28;20203;-61
2021/01/20 04:27:15;;;;;;;7.75;3.67;;;;;;;;;;5110447;28;20733;-61
2021/01/20 04:29:42;;;;;;;6.82;3.80;;;;;;;;;;5110782;28;20203;-60
2021/01/20 04:32:09;;;;;;;5.70;3.25;;;;;;;;;;5111110;28;20204;-61
2021/01/20 04:34:36;;;;;;;4.45;3.45;;;;;;;;;;5110560;28;20204;-61
2021/01/20 04:37:03;;;;;;;3.97;3.40;;;;;;;;;;5110899;28;20584;-60
2021/01/20 04:39:30;;;;;;;4.32;3.80;;;;;;;;;;5110704;28;20204;-60
2021/01/20 04:41:58;;;;;;;4.97;4.00;;;;;;;;;;5110614;28;20200;-60
2021/01/20 04:44:25;;;;;;;5.70;4.13;;;;;;;;;;5110267;28;20329;-60
2021/01/20 04:46:52;;;;;;;8.02;4.50;;;;;;;;;;5109994;28;20580;-61
2021/01/20 04:49:19;;;;;;;4.75;4.05;;;;;;;;;;5110459;28;20200;-61
2021/01/20 04:51:48;;;;;;;6.50;3.88;;;;;;;;;;5110251;28;20204;-61
2021/01/20 04:54:16;;;;;;;5.22;3.55;;;;;;;;;;5109958;28;20668;-61
2021/01/20 04:56:43;;;;;;;4.25;3.85;;;;;;;;;;5110144;28;20561;-61
2021/01/20 04:59:10;;;;;;;7.05;4.07;;;;;;;;;;5109838;28;20252;-60
2021/01/20 05:01:37;;;;;;;5.85;4.43;;;;;;;;;;5109868;28;20694;-60
2021/01/20 05:04:05;;;;;;;4.18;3.40;;;;;;;;;;5109879;28;20253;-60
2021/01/20 05:06:32;;;;;;;5.03;4.07;;;;;;;;;;5109534;28;20700;-61
2021/01/20 05:08:59;;;;;;;4.50;3.72;;;;;;;;;;5110029;28;20211;-60
2021/01/20 05:11:40;;;;;;;5.75;3.90;;;;;;;;;;5109960;28;20208;-59
2021/01/20 05:14:12;;;;;;;4.75;3.97;;;;;;;;;;5109602;28;20287;-61
2021/01/20 05:16:38;;;;;;;4.65;3.50;;;;;;;;;;5109741;28;20688;-61
2021/01/20 05:19:05;;;;;;;3.30;3.00;;;;;;;;;;5097784;28;20420;-61
2021/01/20 05:21:32;;;;;;;5.38;3.65;;;;;;;;;;5098083;28;20207;-61
2021/01/20 05:24:18;;;;;;;4.00;3.53;;;;;;;;;;5095836;28;20314;-61
2021/01/20 05:26:45;;;;;;;4.13;3.47;;;;;;;;;;5095725;28;20227;-60
2021/01/20 05:29:13;;;;;;;4.97;3.42;;;;;;;;;;5095671;28;20200;-61
2021/01/20 05:31:40;;;;;;;4.38;3.92;;;;;;;;;;5097159;28;20196;-61
2021/01/20 05:34:07;;;;;;;5.07;3.60;;;;;;;;;;5095745;28;20296;-61
2021/01/20 05:36:33;;;;;;;4.60;3.65;;;;;;;;;;5096189;28;20235;-62
2021/01/20 05:39:01;;;;;;;4.50;3.78;;;;;;;;;;5097305;28;20207;-61
2021/01/20 05:41:29;;;;;;;5.05;3.72;;;;;;;;;;5095641;28;20201;-61
2021/01/20 05:43:57;;;;;;;4.40;3.88;;;;;;;;;;5095872;28;20196;-61
2021/01/20 05:46:31;;;;;;;5.03;3.15;;;;;;;;;;5096243;28;20639;-61
2021/01/20 05:48:57;;;;;;;5.32;3.85;;;;;;;;;;5096403;28;20204;-61
2021/01/20 05:51:24;;;;;;;3.95;3.40;;;;;;;;;;5096253;28;20279;-61
2021/01/20 05:53:52;;;;;;;4.22;3.55;;;;;;;;;;5095705;28;20207;-60
2021/01/20 05:56:25;;;;;;;6.97;4.65;;;;;;;;;;5095474;28;20216;-61
2021/01/20 05:58:51;;;;;;;4.13;3.15;;;;;;;;;;5097824;28;20535;-62
2021/01/20 06:01:19;;;;;;;6.18;3.75;;;;;;;;;;5095301;28;20228;-59
2021/01/20 06:03:47;;;;;;;4.32;3.55;;;;;;;;;;5095045;28;20793;-60
2021/01/20 06:06:14;;;;;;;5.35;3.88;;;;;;;;;;5094818;28;20596;-61
2021/01/20 06:08:41;;;;;;;4.75;3.65;;;;;;;;;;5095518;28;20594;-61
2021/01/20 06:11:07;;;;;;;3.70;3.22;;;;;;;;;;5095350;28;20683;-60
2021/01/20 06:13:35;;;;;;;4.68;3.60;;;;;;;;;;5095126;28;20659;-61
2021/01/20 06:16:10;;;;;;;5.30;3.83;;;;;;;;;;5095822;28;20558;-61
2021/01/20 06:18:37;;;;;;;4.30;3.90;;;;;;;;;;5095775;28;20187;-60
2021/01/20 06:21:05;;;;;;;8.52;3.85;;;;;;;;;;5096223;28;20204;-60
2021/01/20 06:23:34;;;;;;;4.55;3.80;;;;;;;;;;5094594;28;20695;-61
2021/01/20 06:26:02;;;;;;;5.60;3.95;;;;;;;;;;5094493;28;20703;-60
2021/01/20 06:28:29;;;;;;;6.38;3.45;;;;;;;;;;5094239;28;20684;-60
2021/01/20 06:30:57;;;;;;;5.40;3.60;;;;;;;;;;5093892;28;20672;-61
2021/01/20 06:33:28;;;;;;;4.22;3.58;;;;;;;;;;5094950;28;20201;-61
2021/01/20 06:35:55;;;;;;;4.60;4.00;;;;;;;;;;5094890;28;20307;-60
2021/01/20 06:38:35;;;;;;;5.53;3.35;;;;;;;;;;5094737;28;20280;-61
2021/01/20 06:41:03;;;;;;;6.13;3.65;;;;;;;;;;5094693;28;20200;-60
2021/01/20 06:43:34;;;;;;;5.13;3.25;;;;;;;;;;5094630;28;20208;-61
2021/01/20 06:46:11;;;;;;;4.97;3.42;;;;;;;;;;5094684;28;20220;-62
2021/01/20 06:48:52;;;;;;;3.25;2.95;;;;;;;;;;5095275;28;20204;-61
2021/01/20 06:51:19;;;;;;;5.00;3.42;;;;;;;;;;5095155;28;20584;-60
2021/01/20 06:54:01;;;;;;;4.93;3.67;;;;;;;;;;5095123;28;20548;-61
2021/01/20 06:56:32;;;;;;;4.05;3.33;;;;;;;;;;5095295;28;20251;-61
2021/01/20 06:59:13;;;;;;;4.75;4.00;;;;;;;;;;5094843;28;20226;-58
2021/01/20 07:01:40;;;;;;;4.40;3.42;;;;;;;;;;5094199;28;20180;-59
2021/01/20 07:04:07;;;;;;;5.00;3.60;;;;;;;;;;5093704;28;20211;-58
2021/01/20 07:06:43;;;;;;;3.95;3.33;;;;;;;;;;5093436;28;20684;-58
2021/01/20 07:09:11;;;;;;;4.28;3.08;;;;;;;;;;5094433;28;20564;-55
2021/01/20 07:11:56;;;;;;;6.95;3.30;;;;;;;;;;5093706;28;20204;-58
2021/01/20 07:14:30;;;;;;;4.78;3.15;;;;;;;;;;5093389;28;20200;-56
2021/01/20 07:16:57;;;;;;;3.90;3.10;;;;;;;;;;5093891;28;20345;-57
2021/01/20 07:19:23;;;;;;;5.35;4.10;;;;;;;;;;5093710;28;20667;-59
2021/01/20 07:21:50;;;;;;;4.60;3.47;;;;;;;;;;5093752;28;20207;-57
2021/01/20 07:24:17;;;;;;;4.70;2.95;;;;;;;;;;5093679;28;20207;-57
2021/01/20 07:26:45;;;;;;;4.07;3.65;;;;;;;;;;5094516;28;20246;-59
2021/01/20 07:29:15;;;;;;;6.53;3.92;;;;;;;;;;5097319;28;20276;-57
2021/01/20 07:31:45;;;;;;;6.70;3.20;;;;;;;;;;5099094;28;20204;-58
2021/01/20 07:34:12;;;;;;;4.68;3.30;;;;;;;;;;5098629;28;20184;-59
2021/01/20 07:36:39;;;;;;;3.63;3.22;;;;;;;;;;5096128;28;20221;-58
2021/01/20 07:39:20;;;;;;;5.75;3.67;;;;;;;;;;5094605;28;20200;-57
2021/01/20 07:41:52;;;;;;;4.22;3.03;;;;;;;;;;5092886;28;20633;-58
2021/01/20 07:44:19;;;;;;;4.57;3.63;;;;;;;;;;5093298;28;20276;-57
2021/01/20 07:46:46;;;;;;;3.88;2.65;;;;;;;;;;5092988;28;20232;-58
2021/01/20 07:49:13;;;;;;;3.72;2.92;;;;;;;;;;5093566;28;20518;-58
2021/01/20 07:51:40;;;;;;;3.92;3.13;;;;;;;;;;5091953;28;20470;-57
2021/01/20 07:54:07;;;;;;;4.55;3.72;;;;;;;;;;5093405;28;20204;-57
2021/01/20 07:56:34;;;;;;;6.57;3.70;;;;;;;;;;5093508;28;20224;-59
2021/01/20 07:59:17;;;;;;;3.80;3.20;;;;;;;;;;5092764;28;20690;-56
2021/01/20 08:01:44;;;;;;;3.38;2.60;;;;;;;;;;5093049;28;20196;-57
2021/01/20 08:04:22;;;;;;;3.30;3.00;;;;;;;;;;5092938;28;20208;-58
2021/01/20 08:06:49;;;;;;;4.13;3.13;;;;;;;;;;5092707;28;20231;-57
2021/01/20 08:09:15;;;;;;;4.35;3.20;;;;;;;;;;5092666;28;20200;-57
2021/01/20 08:11:43;;;;;;;3.25;2.95;;;;;;;;;;5092614;28;20283;-58
2021/01/20 08:14:10;;;;;;;5.05;3.53;;;;;;;;;;5092835;28;20204;-57
2021/01/20 08:16:38;;;;;;;3.92;2.80;;;;;;;;;;5092909;28;20243;-57
2021/01/20 08:19:05;;;;;;;4.45;3.10;;;;;;;;;;5092586;28;20228;-57
2021/01/20 08:21:33;;;;;;;4.00;3.08;;;;;;;;;;5093153;28;20204;-57
2021/01/20 08:24:05;;;;;;;4.80;4.20;;;;;;;;;;5092756;28;20204;-59
2021/01/20 08:26:32;;;;;;;3.17;2.85;;;;;;;;;;5092769;28;20216;-59
2021/01/20 08:29:06;;;;;;;6.35;3.65;;;;;;;;;;5093597;28;20208;-58
2021/01/20 08:31:33;;;;;;;4.47;3.47;;;;;;;;;;5092587;28;20245;-57
2021/01/20 08:34:19;;;;;;;4.50;3.55;;;;;;;;;;5092553;28;20219;-57
2021/01/20 08:36:57;;;;;;;8.00;3.45;;;;;;;;;;5092337;28;20220;-57
2021/01/20 08:39:24;;;;;;;7.10;3.47;;;;;;;;;;5092506;28;20222;-57
2021/01/20 08:42:09;;;;;;;4.68;3.20;;;;;;;;;;5092302;28;20269;-57
2021/01/20 08:44:36;;;;;;;6.82;3.83;;;;;;;;;;5092149;28;20205;-57
2021/01/20 08:47:03;;;;;;;5.40;3.65;;;;;;;;;;5091710;28;20227;-57
2021/01/20 08:49:29;;;;;;;4.07;2.80;;;;;;;;;;5092105;28;20205;-58
2021/01/20 08:51:57;;;;;;;4.65;2.83;;;;;;;;;;5092497;28;20200;-57
2021/01/20 08:54:24;;;;;;;3.78;3.10;;;;;;;;;;5096426;28;20200;-57
2021/01/20 08:56:51;;;;;;;3.25;2.40;;;;;;;;;;5096386;28;20220;-58
2021/01/20 08:59:17;;;;;;;4.18;3.22;;;;;;;;;;5096774;28;20683;-58
2021/01/20 09:01:44;;;;;;;3.67;3.00;;;;;;;;;;5096041;28;20200;-58
2021/01/20 09:04:11;;;;;;;5.97;3.05;;;;;;;;;;5096454;28;20610;-58
2021/01/20 09:06:38;;;;;;;3.00;2.70;;;;;;;;;;5095759;28;20269;-57
2021/01/20 09:09:05;;;;;;;3.45;3.08;;;;;;;;;;5096100;28;20200;-58
2021/01/20 09:11:32;;;;;;;3.70;2.83;;;;;;;;;;5095091;28;20233;-57
2021/01/20 09:13:59;;;;;;;4.13;3.20;;;;;;;;;;5096060;28;20295;-58
2021/01/20 09:16:26;;;;;;;4.13;3.05;;;;;;;;;;5095214;28;20233;-58
2021/01/20 09:18:53;;;;;;;4.45;3.20;;;;;;;;;;5095541;28;20201;-55
2021/01/20 09:21:20;;;;;;;3.10;2.70;;;;;;;;;;5095830;28;20257;-58
2021/01/20 09:23:47;;;;;;;2.72;2.53;;;;;;;;;;5095392;28;20200;-57
2021/01/20 09:26:14;;;;;;;3.13;2.83;;;;;;;;;;5095227;28;20227;-56
2021/01/20 09:28:41;;;;;;;3.67;2.40;;;;;;;;;;5096226;28;20678;-58
2021/01/20 09:31:08;;;;;;;4.25;2.47;;;;;;;;;;5095485;28;20234;-57
2021/01/20 09:33:35;;;;;;;3.40;3.08;;;;;;;;;;5096192;28;20209;-58
2021/01/20 09:36:01;;;;;;;4.07;2.53;;;;;;;;;;5095875;28;20246;-57
2021/01/20 09:38:28;;;;;;;2.30;2.10;;;;;;;;;;5095370;28;20200;-57
2021/01/20 09:40:55;;;;;;;4.72;2.78;;;;;;;;;;5095687;28;20571;-58
2021/01/20 09:43:23;;;;;;;3.22;2.63;;;;;;;;;;5095647;28;20200;-58
2021/01/20 09:45:50;;;;;;;4.93;3.03;;;;;;;;;;5095335;28;20262;-58
2021/01/20 09:48:17;;;;;;;5.55;3.22;;;;;;;;;;5095154;28;20672;-58
2021/01/20 09:50:44;;;;;;;3.15;2.85;;;;;;;;;;5095344;28;20199;-58
2021/01/20 09:53:12;;;;;;;4.38;2.88;;;;;;;;;;5095080;28;20534;-57
2021/01/20 09:55:39;;;;;;;3.13;2.83;;;;;;;;;;5094949;28;20660;-57
2021/01/20 09:58:05;;;;;;;2.97;2.67;;;;;;;;;;5094846;28;20201;-57
2021/01/20 10:00:34;;;;;;;2.90;2.38;;;;;;;;;;5095005;28;20200;-58
2021/01/20 10:03:04;;;;;;;3.63;2.55;;;;;;;;;;5094592;28;20211;-57
2021/01/20 10:05:31;;;;;;;3.20;2.90;;;;;;;;;;5094480;28;20212;-57
2021/01/20 10:07:58;;;;;;;3.10;2.80;;;;;;;;;;5094871;28;20216;-58
2021/01/20 10:10:24;;;;;;;3.83;2.30;;;;;;;;;;5094434;28;20258;-57
2021/01/20 10:12:54;;;;;;;2.70;2.42;;;;;;;;;;5094617;28;20201;-57
2021/01/20 10:15:20;;;;;;;3.70;3.20;;;;;;;;;;5094497;28;20204;-59
2021/01/20 10:17:50;;;;;;;3.25;2.53;;;;;;;;;;5094350;28;20213;-56
2021/01/20 10:20:17;;;;;;;4.75;2.65;;;;;;;;;;5139169;22;20231;-61
2021/01/20 10:22:44;;;;;;;3.63;3.05;;;;;;;;;;5078123;28;20200;-62
2021/01/20 10:25:12;;;;;;;3.80;2.97;;;;;;;;;;5077778;28;20224;-62
2021/01/20 10:27:38;;;;;;;4.30;2.83;;;;;;;;;;5077344;28;20229;-62
2021/01/20 10:30:06;;;;;;;3.08;2.50;;;;;;;;;;5076675;28;20628;-62
2021/01/20 10:32:32;;;;;;;4.70;1.85;;;;;;;;;;5076735;28;20226;-62
2021/01/20 10:35:00;;;;;;;2.60;2.30;;;;;;;;;;5076482;28;20204;-63
2021/01/20 10:37:27;;;;;;;2.88;2.17;;;;;;;;;;5078697;28;20197;-62
2021/01/20 10:39:54;;;;;;;4.97;2.72;;;;;;;;;;5076325;28;20221;-63
2021/01/20 10:42:20;;;;;;;3.00;2.50;;;;;;;;;;5076729;28;20205;-61
2021/01/20 10:44:47;;;;;;;3.08;2.65;;;;;;;;;;5076164;28;20201;-61
2021/01/20 10:47:14;;;;;;;3.42;3.08;;;;;;;;;;5076631;28;20217;-62
2021/01/20 10:49:41;;;;;;;2.80;2.53;;;;;;;;;;5080717;28;20630;-62
2021/01/20 10:52:08;;;;;;;8.32;3.65;;;;;;;;;;5079484;28;20213;-62
2021/01/20 10:54:35;;;;;;;3.60;2.58;;;;;;;;;;5078618;28;20223;-62
2021/01/20 10:57:04;;;;;;;3.05;2.45;;;;;;;;;;5078619;28;20201;-61
2021/01/20 10:59:40;;;;;;;4.65;2.50;;;;;;;;;;5076589;28;20580;-62
2021/01/20 11:02:07;;;;;;;2.97;2.10;;;;;;;;;;5076691;28;20213;-62
2021/01/20 11:04:34;;;;;;;3.58;2.55;;;;;;;;;;5075972;28;20669;-61
2021/01/20 11:07:01;;;;;;;3.13;2.45;;;;;;;;;;5074775;28;20212;-62
2021/01/20 11:09:30;;;;;;;4.55;3.10;;;;;;;;;;5075061;28;20740;-61
2021/01/20 11:11:57;;;;;;;5.28;2.78;;;;;;;;;;5075025;28;20228;-62
2021/01/20 11:14:24;;;;;;;2.45;2.25;;;;;;;;;;5076445;28;20616;-62
2021/01/20 11:16:52;;;;;;;4.68;2.60;;;;;;;;;;5077374;28;20201;-62
2021/01/20 11:19:18;;;;;;;8.95;2.38;;;;;;;;;;5075307;28;20319;-63
2021/01/20 11:21:45;;;;;;;2.95;2.30;;;;;;;;;;5076972;28;20254;-61
2021/01/20 11:24:17;;;;;;;4.63;2.60;;;;;;;;;;5075099;28;20730;-62
2021/01/20 11:26:45;;;;;;;3.67;2.40;;;;;;;;;;5076044;28;20232;-63
2021/01/20 11:29:12;;;;;;;3.35;3.05;;;;;;;;;;5076342;28;20315;-62
2021/01/20 11:31:39;;;;;;;3.50;3.10;;;;;;;;;;5074911;28;20232;-61
2021/01/20 11:34:06;;;;;;;3.08;2.40;;;;;;;;;;5075232;28;20196;-64
2021/01/20 11:36:33;;;;;;;3.53;2.65;;;;;;;;;;5075642;28;20204;-62
2021/01/20 11:38:59;;;;;;;3.05;2.40;;;;;;;;;;5075774;28;20213;-63
2021/01/20 11:41:26;;;;;;;3.70;2.22;;;;;;;;;;5074607;28;20228;-63
2021/01/20 11:43:54;;;;;;;4.22;2.53;;;;;;;;;;5075587;28;20208;-61
2021/01/20 11:46:21;;;;;;;2.78;2.38;;;;;;;;;;5075847;28;20252;-62
2021/01/20 11:48:48;;;;;;;2.85;2.40;;;;;;;;;;5075998;28;20202;-62
2021/01/20 11:51:15;;;;;;;3.47;2.60;;;;;;;;;;5075298;28;20276;-60
2021/01/20 11:53:42;;;;;;;2.90;2.45;;;;;;;;;;5076507;28;20197;-62
2021/01/20 11:56:09;;;;;;;2.60;2.40;;;;;;;;;;5075795;28;20197;-63
2021/01/20 11:58:36;;;;;;;3.30;2.90;;;;;;;;;;5076279;28;20197;-62
2021/01/20 12:01:04;;;;;;;3.38;2.55;;;;;;;;;;5075299;28;20228;-61
2021/01/20 12:03:31;;;;;;;2.85;2.15;;;;;;;;;;5082119;28;20679;-62
2021/01/20 12:05:58;;;;;;;3.63;2.53;;;;;;;;;;5083623;28;20197;-63
2021/01/20 12:08:25;;;;;;;2.88;2.53;;;;;;;;;;5085916;28;20209;-61
2021/01/20 12:10:52;;;;;;;3.10;2.80;;;;;;;;;;5084722;28;20220;-62
2021/01/20 12:13:21;;;;;;;6.43;2.40;;;;;;;;;;5085486;28;20239;-62
2021/01/20 12:15:50;;;;;;;3.92;2.60;;;;;;;;;;5087322;28;20201;-62
2021/01/20 12:18:18;;;;;;;3.00;2.70;;;;;;;;;;5086284;28;20197;-62
2021/01/20 12:20:44;;;;;;;3.05;2.75;;;;;;;;;;5086166;28;20240;-62
2021/01/20 12:23:11;;;;;;;3.63;2.50;;;;;;;;;;5086171;28;20197;-62
2021/01/20 12:25:38;;;;;;;3.35;2.88;;;;;;;;;;5087134;28;20251;-62
2021/01/20 12:28:05;;;;;;;4.00;2.80;;;;;;;;;;5090401;28;20221;-61
2021/01/20 12:30:32;;;;;;;3.20;2.45;;;;;;;;;;5092819;28;20220;-63
2021/01/20 12:32:58;;;;;;;5.25;2.92;;;;;;;;;;5090141;28;20204;-62
2021/01/20 12:35:26;;;;;;;4.13;2.40;;;;;;;;;;5089882;28;20205;-63
2021/01/20 12:37:53;;;;;;;3.25;2.50;;;;;;;;;;5087700;28;20220;-62
2021/01/20 12:40:19;;;;;;;3.50;2.50;;;;;;;;;;5086548;28;20225;-63
2021/01/20 12:42:46;;;;;;;3.92;2.55;;;;;;;;;;5088906;28;20207;-64
2021/01/20 12:45:14;;;;;;;3.70;2.65;;;;;;;;;;5089524;28;20196;-63
2021/01/20 12:47:40;;;;;;;3.55;2.30;;;;;;;;;;5088139;28;20243;-62
2021/01/20 12:50:07;;;;;;;3.33;2.47;;;;;;;;;;5086440;28;20221;-63
2021/01/20 12:52:35;;;;;;;3.08;2.53;;;;;;;;;;5084336;28;20212;-62
2021/01/20 12:55:02;;;;;;;2.75;2.30;;;;;;;;;;5080960;28;20734;-63
2021/01/20 12:57:29;;;;;;;5.30;2.70;;;;;;;;;;5082104;28;20261;-64
2021/01/20 12:59:55;;;;;;;2.92;2.38;;;;;;;;;;5082087;28;20224;-62
2021/01/20 13:02:22;;;;;;;2.88;2.40;;;;;;;;;;5081499;28;20201;-63
2021/01/20 13:04:49;;;;;;;2.57;2.23;;;;;;;;;;5083640;28;20255;-63
2021/01/20 13:07:16;;;;;;;2.87;2.57;;;;;;;;;;5079130;28;20482;-63
2021/01/20 13:09:43;;;;;;;3.53;2.65;;;;;;;;;;5078363;28;20470;-63
2021/01/20 13:12:11;;;;;;;4.00;2.57;;;;;;;;;;5078213;28;20212;-63
2021/01/20 13:14:37;;;;;;;2.95;2.60;;;;;;;;;;5078157;28;20451;-62
2021/01/20 13:17:04;;;;;;;4.47;2.93;;;;;;;;;;5078597;28;20200;-62
2021/01/20 13:19:31;;;;;;;3.07;2.27;;;;;;;;;;5079668;28;20443;-63
2021/01/20 13:21:58;;;;;;;3.20;2.40;;;;;;;;;;5080810;28;20454;-63
2021/01/20 13:24:24;;;;;;;2.83;2.50;;;;;;;;;;5082157;28;20205;-63
2021/01/20 13:26:52;;;;;;;4.80;2.43;;;;;;;;;;5078199;28;20481;-62
2021/01/20 13:29:19;;;;;;;3.00;2.80;;;;;;;;;;5079124;28;20451;-63
2021/01/20 13:31:49;;;;;;;5.10;2.70;;;;;;;;;;5084373;28;20704;-63
2021/01/20 13:34:15;;;;;;;3.07;2.60;;;;;;;;;;5083635;28;20204;-62
2021/01/20 13:36:42;;;;;;;3.13;2.50;;;;;;;;;;5080840;28;20439;-62
2021/01/20 13:39:09;;;;;;;3.85;2.88;;;;;;;;;;5079885;28;20479;-61
2021/01/20 13:41:36;;;;;;;2.65;2.40;;;;;;;;;;5077786;28;20220;-62
2021/01/20 13:44:03;;;;;;;3.25;2.72;;;;;;;;;;5076660;28;20201;-62
2021/01/20 13:46:30;;;;;;;3.30;2.65;;;;;;;;;;5076416;28;20225;-62
2021/01/20 13:48:57;;;;;;;3.00;2.70;;;;;;;;;;5076521;28;20209;-62
2021/01/20 13:51:24;;;;;;;2.70;2.50;;;;;;;;;;5076537;28;20466;-63
2021/01/20 13:53:50;;;;;;;3.63;2.33;;;;;;;;;;5075933;28;20457;-62
2021/01/20 13:56:17;;;;;;;2.85;2.60;;;;;;;;;;5075618;28;20446;-62
2021/01/20 13:58:44;;;;;;;4.97;3.15;;;;;;;;;;5075495;28;20204;-61
2021/01/20 14:01:11;;;;;;;3.03;2.40;;;;;;;;;;5075960;28;20263;-60
2021/01/20 14:03:41;;;;;;;4.57;2.40;;;;;;;;;;5076437;28;20212;-60
2021/01/20 14:06:08;;;;;;;2.50;2.30;;;;;;;;;;5075987;28;20201;-62
2021/01/20 14:08:35;;;;;;;3.75;2.50;;;;;;;;;;5077111;28;20196;-61
2021/01/20 14:11:01;;;;;;;2.88;2.58;;;;;;;;;;5076369;28;20301;-61
2021/01/20 14:13:28;;;;;;;4.60;3.40;;;;;;;;;;5076439;28;20204;-61
2021/01/20 14:15:55;;;;;;;3.43;2.60;;;;;;;;;;5075188;28;20959;-61
2021/01/20 14:18:22;;;;;;;3.60;2.50;;;;;;;;;;5075275;28;20825;-61
2021/01/20 14:20:49;;;;;;;2.50;2.30;;;;;;;;;;5075239;28;20548;-63
2021/01/20 14:23:16;;;;;;;3.40;2.50;;;;;;;;;;5074921;28;20450;-62
2021/01/20 14:25:43;;;;;;;2.90;2.07;;;;;;;;;;5075472;28;20432;-62
2021/01/20 14:28:10;;;;;;;4.38;2.80;;;;;;;;;;5076038;28;20479;-62
2021/01/20 14:30:38;;;;;;;4.03;3.00;;;;;;;;;;5077900;28;20730;-62
2021/01/20 14:33:05;;;;;;;4.37;2.90;;;;;;;;;;5082537;28;20840;-63
2021/01/20 14:35:33;;;;;;;5.05;2.80;;;;;;;;;;5079249;28;20451;-62
2021/01/20 14:37:59;;;;;;;2.83;2.38;;;;;;;;;;5078735;28;20197;-62
2021/01/20 14:40:27;;;;;;;4.00;2.70;;;;;;;;;;5077943;28;20254;-61
2021/01/20 14:42:55;;;;;;;3.88;2.60;;;;;;;;;;5077217;28;20289;-61
2021/01/20 14:45:22;;;;;;;2.93;2.43;;;;;;;;;;5076654;28;20239;-62
2021/01/20 14:47:49;;;;;;;7.15;2.70;;;;;;;;;;5075942;28;20524;-62
2021/01/20 14:50:16;;;;;;;3.83;2.90;;;;;;;;;;5075344;28;20762;-62